sensor_id;sensor_type;location;lat;lon;timestamp;temperature;humidity
3690;DHT22;1861;50.240;8.596;2023-04-03T00:01:01;9.20;98.20
3690;DHT22;1861;50.240;8.596;2023-04-03T00:03:29;9.20;97.60
3690;DHT22;1861;50.240;8.596;2023-04-03T00:05:58;9.30;97.60
3690;DHT22;1861;50.240;8.596;2023-04-03T00:08:26;9.30;97.40
3690;DHT22;1861;50.240;8.596;2023-04-03T00:10:54;9.30;97.20
3690;DHT22;1861;50.240;8.596;2023-04-03T00:13:23;9.30;97.10
3690;DHT22;1861;50.240;8.596;2023-04-03T00:15:52;9.20;96.80
3690;DHT22;1861;50.240;8.596;2023-04-03T00:18:20;9.20;97.20
3690;DHT22;1861;50.240;8.596;2023-04-03T00:20:48;9.20;97.10
3690;DHT22;1861;50.240;8.596;2023-04-03T00:23:16;9.30;96.80
3690;DHT22;1861;50.240;8.596;2023-04-03T00:25:44;9.30;96.80
3690;DHT22;1861;50.240;8.596;2023-04-03T00:28:13;9.30;97.00
3690;DHT22;1861;50.240;8.596;2023-04-03T00:30:42;9.30;96.80
3690;DHT22;1861;50.240;8.596;2023-04-03T00:33:11;9.30;96.80
3690;DHT22;1861;50.240;8.596;2023-04-03T00:35:40;9.30;96.80
3690;DHT22;1861;50.240;8.596;2023-04-03T00:38:09;9.30;96.40
3690;DHT22;1861;50.240;8.596;2023-04-03T00:40:39;9.30;96.50
3690;DHT22;1861;50.240;8.596;2023-04-03T00:43:12;9.30;96.10
3690;DHT22;1861;50.240;8.596;2023-04-03T00:45:44;9.30;96.30
3690;DHT22;1861;50.240;8.596;2023-04-03T00:48:17;9.30;96.30
3690;DHT22;1861;50.240;8.596;2023-04-03T00:50:46;9.20;96.60
3690;DHT22;1861;50.240;8.596;2023-04-03T00:53:17;9.30;96.60
3690;DHT22;1861;50.240;8.596;2023-04-03T00:55:48;9.30;96.50
3690;DHT22;1861;50.240;8.596;2023-04-03T00:58:18;9.30;96.50
3690;DHT22;1861;50.240;8.596;2023-04-03T01:00:54;9.30;96.60
3690;DHT22;1861;50.240;8.596;2023-04-03T01:03:24;9.30;96.70
3690;DHT22;1861;50.240;8.596;2023-04-03T01:05:54;9.20;96.50
3690;DHT22;1861;50.240;8.596;2023-04-03T01:08:22;9.20;96.70
3690;DHT22;1861;50.240;8.596;2023-04-03T01:10:50;9.30;96.50
3690;DHT22;1861;50.240;8.596;2023-04-03T01:13:24;9.30;96.60
3690;DHT22;1861;50.240;8.596;2023-04-03T01:15:54;9.30;96.60
3690;DHT22;1861;50.240;8.596;2023-04-03T01:18:24;9.30;96.80
3690;DHT22;1861;50.240;8.596;2023-04-03T01:21:23;9.30;96.90
3690;DHT22;1861;50.240;8.596;2023-04-03T01:24:20;9.30;97.10
3690;DHT22;1861;50.240;8.596;2023-04-03T01:26:49;9.30;96.90
3690;DHT22;1861;50.240;8.596;2023-04-03T01:29:18;9.30;97.10
3690;DHT22;1861;50.240;8.596;2023-04-03T01:31:53;9.30;97.10
3690;DHT22;1861;50.240;8.596;2023-04-03T01:34:21;9.30;97.20
3690;DHT22;1861;50.240;8.596;2023-04-03T01:36:50;9.30;97.10
3690;DHT22;1861;50.240;8.596;2023-04-03T01:39:20;9.20;97.00
3690;DHT22;1861;50.240;8.596;2023-04-03T01:41:49;9.20;97.00
3690;DHT22;1861;50.240;8.596;2023-04-03T01:44:33;9.10;97.30
3690;DHT22;1861;50.240;8.596;2023-04-03T01:47:05;9.20;97.30
3690;DHT22;1861;50.240;8.596;2023-04-03T01:49:34;9.20;97.30
3690;DHT22;1861;50.240;8.596;2023-04-03T01:52:02;9.10;97.20
3690;DHT22;1861;50.240;8.596;2023-04-03T01:54:30;9.10;97.80
3690;DHT22;1861;50.240;8.596;2023-04-03T01:56:58;9.20;97.80
3690;DHT22;1861;50.240;8.596;2023-04-03T01:59:27;9.20;97.80
3690;DHT22;1861;50.240;8.596;2023-04-03T02:01:55;9.20;97.80
3690;DHT22;1861;50.240;8.596;2023-04-03T02:04:24;9.20;97.70
3690;DHT22;1861;50.240;8.596;2023-04-03T02:06:53;9.20;97.70
3690;DHT22;1861;50.240;8.596;2023-04-03T02:09:21;9.20;97.90
3690;DHT22;1861;50.240;8.596;2023-04-03T02:11:49;9.20;97.90
3690;DHT22;1861;50.240;8.596;2023-04-03T02:14:17;9.20;98.00
3690;DHT22;1861;50.240;8.596;2023-04-03T02:16:45;9.20;98.00
3690;DHT22;1861;50.240;8.596;2023-04-03T02:19:13;9.20;97.80
3690;DHT22;1861;50.240;8.596;2023-04-03T02:21:43;9.20;98.10
3690;DHT22;1861;50.240;8.596;2023-04-03T02:24:11;9.20;98.00
3690;DHT22;1861;50.240;8.596;2023-04-03T02:26:39;9.10;98.00
3690;DHT22;1861;50.240;8.596;2023-04-03T02:29:08;9.10;98.10
3690;DHT22;1861;50.240;8.596;2023-04-03T02:31:36;9.20;98.10
3690;DHT22;1861;50.240;8.596;2023-04-03T02:34:05;9.10;98.10
3690;DHT22;1861;50.240;8.596;2023-04-03T02:36:35;9.20;98.10
3690;DHT22;1861;50.240;8.596;2023-04-03T02:39:08;9.20;98.30
3690;DHT22;1861;50.240;8.596;2023-04-03T02:41:36;9.20;98.20
3690;DHT22;1861;50.240;8.596;2023-04-03T02:44:11;9.20;98.00
3690;DHT22;1861;50.240;8.596;2023-04-03T02:46:39;9.20;98.10
3690;DHT22;1861;50.240;8.596;2023-04-03T02:49:07;9.10;98.00
3690;DHT22;1861;50.240;8.596;2023-04-03T02:51:35;9.00;98.20
3690;DHT22;1861;50.240;8.596;2023-04-03T02:54:04;9.10;98.20
3690;DHT22;1861;50.240;8.596;2023-04-03T02:56:35;9.00;98.30
3690;DHT22;1861;50.240;8.596;2023-04-03T02:59:03;9.00;98.40
3690;DHT22;1861;50.240;8.596;2023-04-03T03:01:34;9.00;98.50
3690;DHT22;1861;50.240;8.596;2023-04-03T03:04:02;9.00;98.60
3690;DHT22;1861;50.240;8.596;2023-04-03T03:06:30;9.00;98.60
3690;DHT22;1861;50.240;8.596;2023-04-03T03:08:58;9.00;98.80
3690;DHT22;1861;50.240;8.596;2023-04-03T03:11:27;8.90;98.80
3690;DHT22;1861;50.240;8.596;2023-04-03T03:13:56;8.90;98.50
3690;DHT22;1861;50.240;8.596;2023-04-03T03:16:25;8.90;98.40
3690;DHT22;1861;50.240;8.596;2023-04-03T03:18:53;8.90;97.70
3690;DHT22;1861;50.240;8.596;2023-04-03T03:21:24;8.90;97.50
3690;DHT22;1861;50.240;8.596;2023-04-03T03:23:52;8.80;97.30
3690;DHT22;1861;50.240;8.596;2023-04-03T03:26:21;8.90;97.30
3690;DHT22;1861;50.240;8.596;2023-04-03T03:28:49;8.70;96.80
3690;DHT22;1861;50.240;8.596;2023-04-03T03:31:18;8.80;96.90
3690;DHT22;1861;50.240;8.596;2023-04-03T03:33:46;8.70;96.50
3690;DHT22;1861;50.240;8.596;2023-04-03T03:36:14;8.80;96.20
3690;DHT22;1861;50.240;8.596;2023-04-03T03:38:42;8.70;96.60
3690;DHT22;1861;50.240;8.596;2023-04-03T03:41:11;8.70;96.40
3690;DHT22;1861;50.240;8.596;2023-04-03T03:43:40;8.70;96.10
3690;DHT22;1861;50.240;8.596;2023-04-03T03:46:09;8.70;96.20
3690;DHT22;1861;50.240;8.596;2023-04-03T03:48:39;8.70;96.30
3690;DHT22;1861;50.240;8.596;2023-04-03T03:51:07;8.60;96.30
3690;DHT22;1861;50.240;8.596;2023-04-03T03:53:37;8.50;96.30
3690;DHT22;1861;50.240;8.596;2023-04-03T03:56:09;8.50;96.40
3690;DHT22;1861;50.240;8.596;2023-04-03T03:58:39;8.50;96.50
3690;DHT22;1861;50.240;8.596;2023-04-03T04:01:07;8.50;96.30
3690;DHT22;1861;50.240;8.596;2023-04-03T04:03:43;8.50;96.40
3690;DHT22;1861;50.240;8.596;2023-04-03T04:06:15;8.40;96.50
3690;DHT22;1861;50.240;8.596;2023-04-03T04:08:44;8.50;96.60
3690;DHT22;1861;50.240;8.596;2023-04-03T04:11:14;8.40;96.30
3690;DHT22;1861;50.240;8.596;2023-04-03T04:13:43;8.40;96.40
3690;DHT22;1861;50.240;8.596;2023-04-03T04:16:13;8.40;96.40
3690;DHT22;1861;50.240;8.596;2023-04-03T04:18:43;8.40;96.50
3690;DHT22;1861;50.240;8.596;2023-04-03T04:21:11;8.50;96.50
3690;DHT22;1861;50.240;8.596;2023-04-03T04:23:40;8.50;96.30
3690;DHT22;1861;50.240;8.596;2023-04-03T04:26:08;8.30;96.50
3690;DHT22;1861;50.240;8.596;2023-04-03T04:28:38;8.30;96.20
3690;DHT22;1861;50.240;8.596;2023-04-03T04:31:07;8.20;96.30
3690;DHT22;1861;50.240;8.596;2023-04-03T04:33:35;8.10;96.50
3690;DHT22;1861;50.240;8.596;2023-04-03T04:36:06;8.10;96.30
3690;DHT22;1861;50.240;8.596;2023-04-03T04:38:35;8.10;96.40
3690;DHT22;1861;50.240;8.596;2023-04-03T04:41:04;8.10;96.40
3690;DHT22;1861;50.240;8.596;2023-04-03T04:43:32;8.10;96.20
3690;DHT22;1861;50.240;8.596;2023-04-03T04:46:02;8.20;96.30
3690;DHT22;1861;50.240;8.596;2023-04-03T04:48:35;8.10;96.40
3690;DHT22;1861;50.240;8.596;2023-04-03T04:51:06;8.10;96.20
3690;DHT22;1861;50.240;8.596;2023-04-03T04:53:36;8.10;96.40
3690;DHT22;1861;50.240;8.596;2023-04-03T04:56:05;8.10;96.40
3690;DHT22;1861;50.240;8.596;2023-04-03T04:58:35;8.10;96.40
3690;DHT22;1861;50.240;8.596;2023-04-03T05:01:05;8.10;96.30
3690;DHT22;1861;50.240;8.596;2023-04-03T05:03:38;8.00;96.30
3690;DHT22;1861;50.240;8.596;2023-04-03T05:06:08;8.10;96.20
3690;DHT22;1861;50.240;8.596;2023-04-03T05:08:37;8.10;96.20
3690;DHT22;1861;50.240;8.596;2023-04-03T05:11:06;8.00;96.20
3690;DHT22;1861;50.240;8.596;2023-04-03T05:13:34;7.90;96.10
3690;DHT22;1861;50.240;8.596;2023-04-03T05:16:03;8.00;96.20
3690;DHT22;1861;50.240;8.596;2023-04-03T05:18:31;8.00;96.20
3690;DHT22;1861;50.240;8.596;2023-04-03T05:21:04;8.00;96.20
3690;DHT22;1861;50.240;8.596;2023-04-03T05:23:34;8.00;96.20
3690;DHT22;1861;50.240;8.596;2023-04-03T05:26:03;8.10;96.20
3690;DHT22;1861;50.240;8.596;2023-04-03T05:28:32;8.00;96.10
3690;DHT22;1861;50.240;8.596;2023-04-03T05:31:00;8.00;96.20
3690;DHT22;1861;50.240;8.596;2023-04-03T05:33:33;8.00;96.00
3690;DHT22;1861;50.240;8.596;2023-04-03T05:36:05;8.00;96.20
3690;DHT22;1861;50.240;8.596;2023-04-03T05:38:39;8.00;96.10
3690;DHT22;1861;50.240;8.596;2023-04-03T05:41:08;8.00;96.20
3690;DHT22;1861;50.240;8.596;2023-04-03T05:43:36;7.90;96.10
3690;DHT22;1861;50.240;8.596;2023-04-03T05:46:10;8.00;96.10
3690;DHT22;1861;50.240;8.596;2023-04-03T05:48:40;7.90;96.30
3690;DHT22;1861;50.240;8.596;2023-04-03T05:51:15;7.80;96.20
3690;DHT22;1861;50.240;8.596;2023-04-03T05:53:47;7.90;96.20
3690;DHT22;1861;50.240;8.596;2023-04-03T05:56:15;7.90;96.20
3690;DHT22;1861;50.240;8.596;2023-04-03T05:58:44;7.90;96.10
3690;DHT22;1861;50.240;8.596;2023-04-03T06:01:12;7.90;96.20
3690;DHT22;1861;50.240;8.596;2023-04-03T06:03:40;7.90;96.30
3690;DHT22;1861;50.240;8.596;2023-04-03T06:06:12;7.90;96.00
3690;DHT22;1861;50.240;8.596;2023-04-03T06:08:40;7.90;96.20
3690;DHT22;1861;50.240;8.596;2023-04-03T06:11:12;7.90;96.20
3690;DHT22;1861;50.240;8.596;2023-04-03T06:13:40;7.90;96.10
3690;DHT22;1861;50.240;8.596;2023-04-03T06:16:10;8.00;96.30
3690;DHT22;1861;50.240;8.596;2023-04-03T06:18:41;8.00;96.00
3690;DHT22;1861;50.240;8.596;2023-04-03T06:21:09;8.00;96.10
3690;DHT22;1861;50.240;8.596;2023-04-03T06:23:37;8.10;96.20
3690;DHT22;1861;50.240;8.596;2023-04-03T06:26:05;8.00;96.20
3690;DHT22;1861;50.240;8.596;2023-04-03T06:28:35;8.10;96.20
3690;DHT22;1861;50.240;8.596;2023-04-03T06:31:03;8.10;96.10
3690;DHT22;1861;50.240;8.596;2023-04-03T06:33:31;8.10;96.10
3690;DHT22;1861;50.240;8.596;2023-04-03T06:36:02;8.10;96.00
3690;DHT22;1861;50.240;8.596;2023-04-03T06:38:31;8.10;95.90
3690;DHT22;1861;50.240;8.596;2023-04-03T06:40:59;8.10;95.90
3690;DHT22;1861;50.240;8.596;2023-04-03T06:43:27;8.20;95.70
3690;DHT22;1861;50.240;8.596;2023-04-03T06:46:01;8.20;95.80
3690;DHT22;1861;50.240;8.596;2023-04-03T06:48:29;8.20;95.70
3690;DHT22;1861;50.240;8.596;2023-04-03T06:50:57;8.20;95.80
3690;DHT22;1861;50.240;8.596;2023-04-03T06:53:25;8.20;95.80
3690;DHT22;1861;50.240;8.596;2023-04-03T06:55:54;8.20;95.90
3690;DHT22;1861;50.240;8.596;2023-04-03T06:58:22;8.20;95.80
3690;DHT22;1861;50.240;8.596;2023-04-03T07:00:50;8.30;95.80
3690;DHT22;1861;50.240;8.596;2023-04-03T07:03:19;8.30;96.20
3690;DHT22;1861;50.240;8.596;2023-04-03T07:05:47;8.30;95.70
3690;DHT22;1861;50.240;8.596;2023-04-03T07:08:16;8.30;95.70
3690;DHT22;1861;50.240;8.596;2023-04-03T07:10:44;8.30;95.90
3690;DHT22;1861;50.240;8.596;2023-04-03T07:13:12;8.30;95.80
3690;DHT22;1861;50.240;8.596;2023-04-03T07:15:40;8.30;95.80
3690;DHT22;1861;50.240;8.596;2023-04-03T07:18:08;8.30;95.70
3690;DHT22;1861;50.240;8.596;2023-04-03T07:20:38;8.40;96.10
3690;DHT22;1861;50.240;8.596;2023-04-03T07:23:06;8.50;96.00
3690;DHT22;1861;50.240;8.596;2023-04-03T07:25:35;8.50;95.80
3690;DHT22;1861;50.240;8.596;2023-04-03T07:28:03;8.50;95.90
3690;DHT22;1861;50.240;8.596;2023-04-03T07:30:31;8.50;96.10
3690;DHT22;1861;50.240;8.596;2023-04-03T07:33:00;8.60;95.90
3690;DHT22;1861;50.240;8.596;2023-04-03T07:35:28;8.60;95.90
3690;DHT22;1861;50.240;8.596;2023-04-03T07:37:58;8.60;95.50
3690;DHT22;1861;50.240;8.596;2023-04-03T07:40:26;8.50;95.70
3690;DHT22;1861;50.240;8.596;2023-04-03T07:42:54;8.60;95.80
3690;DHT22;1861;50.240;8.596;2023-04-03T07:45:23;8.60;95.90
3690;DHT22;1861;50.240;8.596;2023-04-03T07:47:51;8.70;95.70
3690;DHT22;1861;50.240;8.596;2023-04-03T07:50:19;8.70;95.60
3690;DHT22;1861;50.240;8.596;2023-04-03T07:52:47;8.70;95.80
3690;DHT22;1861;50.240;8.596;2023-04-03T07:55:18;8.80;95.80
3690;DHT22;1861;50.240;8.596;2023-04-03T07:57:46;8.90;95.50
3690;DHT22;1861;50.240;8.596;2023-04-03T08:00:18;8.90;95.30
3690;DHT22;1861;50.240;8.596;2023-04-03T08:02:46;9.00;95.50
3690;DHT22;1861;50.240;8.596;2023-04-03T08:05:17;9.00;95.50
3690;DHT22;1861;50.240;8.596;2023-04-03T08:07:46;9.10;95.50
3690;DHT22;1861;50.240;8.596;2023-04-03T08:10:14;9.20;95.60
3690;DHT22;1861;50.240;8.596;2023-04-03T08:12:45;9.30;95.30
3690;DHT22;1861;50.240;8.596;2023-04-03T08:15:13;9.30;95.30
3690;DHT22;1861;50.240;8.596;2023-04-03T08:17:42;9.30;95.30
3690;DHT22;1861;50.240;8.596;2023-04-03T08:20:10;9.40;95.20
3690;DHT22;1861;50.240;8.596;2023-04-03T08:22:38;9.40;95.10
3690;DHT22;1861;50.240;8.596;2023-04-03T08:25:08;9.30;94.70
3690;DHT22;1861;50.240;8.596;2023-04-03T08:27:36;9.20;94.70
3690;DHT22;1861;50.240;8.596;2023-04-03T08:30:08;9.20;94.90
3690;DHT22;1861;50.240;8.596;2023-04-03T08:32:36;9.30;95.00
3690;DHT22;1861;50.240;8.596;2023-04-03T08:35:05;9.40;95.00
3690;DHT22;1861;50.240;8.596;2023-04-03T08:37:34;9.50;94.90
3690;DHT22;1861;50.240;8.596;2023-04-03T08:40:03;9.60;94.80
3690;DHT22;1861;50.240;8.596;2023-04-03T08:42:41;9.70;94.50
3690;DHT22;1861;50.240;8.596;2023-04-03T08:45:16;9.80;94.70
3690;DHT22;1861;50.240;8.596;2023-04-03T08:47:53;9.90;94.30
3690;DHT22;1861;50.240;8.596;2023-04-03T08:50:28;9.90;94.40
3690;DHT22;1861;50.240;8.596;2023-04-03T08:52:58;10.00;93.70
3690;DHT22;1861;50.240;8.596;2023-04-03T08:55:29;10.00;93.70
3690;DHT22;1861;50.240;8.596;2023-04-03T08:58:02;10.10;93.70
3690;DHT22;1861;50.240;8.596;2023-04-03T09:00:37;10.00;93.20
3690;DHT22;1861;50.240;8.596;2023-04-03T09:03:12;10.00;93.10
3690;DHT22;1861;50.240;8.596;2023-04-03T09:05:45;10.00;92.90
3690;DHT22;1861;50.240;8.596;2023-04-03T09:08:22;10.00;92.90
3690;DHT22;1861;50.240;8.596;2023-04-03T09:11:04;10.00;93.10
3690;DHT22;1861;50.240;8.596;2023-04-03T09:13:38;10.00;92.80
3690;DHT22;1861;50.240;8.596;2023-04-03T09:16:20;10.10;92.60
3690;DHT22;1861;50.240;8.596;2023-04-03T09:18:54;10.10;92.60
3690;DHT22;1861;50.240;8.596;2023-04-03T09:21:32;10.10;92.80
3690;DHT22;1861;50.240;8.596;2023-04-03T09:24:05;10.10;92.30
3690;DHT22;1861;50.240;8.596;2023-04-03T09:26:39;10.10;92.50
3690;DHT22;1861;50.240;8.596;2023-04-03T09:29:14;10.10;92.50
3690;DHT22;1861;50.240;8.596;2023-04-03T09:31:46;10.20;92.60
3690;DHT22;1861;50.240;8.596;2023-04-03T09:34:22;10.20;92.80
3690;DHT22;1861;50.240;8.596;2023-04-03T09:36:52;10.20;92.70
3690;DHT22;1861;50.240;8.596;2023-04-03T09:39:23;10.30;92.50
3690;DHT22;1861;50.240;8.596;2023-04-03T09:42:00;10.30;92.40
3690;DHT22;1861;50.240;8.596;2023-04-03T09:44:30;10.20;92.40
3690;DHT22;1861;50.240;8.596;2023-04-03T09:47:17;10.40;92.60
3690;DHT22;1861;50.240;8.596;2023-04-03T09:49:47;10.40;92.30
3690;DHT22;1861;50.240;8.596;2023-04-03T09:52:20;10.30;92.10
3690;DHT22;1861;50.240;8.596;2023-04-03T09:54:49;10.30;92.20
3690;DHT22;1861;50.240;8.596;2023-04-03T09:57:17;10.30;92.70
3690;DHT22;1861;50.240;8.596;2023-04-03T09:59:48;10.30;92.00
3690;DHT22;1861;50.240;8.596;2023-04-03T10:02:34;10.40;92.00
3690;DHT22;1861;50.240;8.596;2023-04-03T10:05:03;10.40;91.60
3690;DHT22;1861;50.240;8.596;2023-04-03T10:07:37;10.50;91.40
3690;DHT22;1861;50.240;8.596;2023-04-03T10:10:19;10.60;91.50
3690;DHT22;1861;50.240;8.596;2023-04-03T10:13:04;10.60;91.40
3690;DHT22;1861;50.240;8.596;2023-04-03T10:15:36;10.60;90.60
3690;DHT22;1861;50.240;8.596;2023-04-03T10:18:18;10.60;90.40
3690;DHT22;1861;50.240;8.596;2023-04-03T10:20:51;10.60;90.30
3690;DHT22;1861;50.240;8.596;2023-04-03T10:23:23;10.70;90.60
3690;DHT22;1861;50.240;8.596;2023-04-03T10:26:02;10.80;90.40
3690;DHT22;1861;50.240;8.596;2023-04-03T10:28:43;10.80;90.40
3690;DHT22;1861;50.240;8.596;2023-04-03T10:31:17;10.90;90.20
3690;DHT22;1861;50.240;8.596;2023-04-03T10:34:00;10.90;89.80
3690;DHT22;1861;50.240;8.596;2023-04-03T10:36:37;11.00;90.30
3690;DHT22;1861;50.240;8.596;2023-04-03T10:39:17;11.10;89.80
3690;DHT22;1861;50.240;8.596;2023-04-03T10:41:56;11.00;89.50
3690;DHT22;1861;50.240;8.596;2023-04-03T10:44:56;11.10;89.20
3690;DHT22;1861;50.240;8.596;2023-04-03T10:47:34;11.20;88.00
3690;DHT22;1861;50.240;8.596;2023-04-03T10:50:21;11.20;87.80
3690;DHT22;1861;50.240;8.596;2023-04-03T10:52:56;11.20;87.80
3690;DHT22;1861;50.240;8.596;2023-04-03T10:55:34;11.20;86.60
3690;DHT22;1861;50.240;8.596;2023-04-03T10:58:04;11.20;86.40
3690;DHT22;1861;50.240;8.596;2023-04-03T11:00:36;11.30;87.30
3690;DHT22;1861;50.240;8.596;2023-04-03T11:03:10;11.40;86.80
3690;DHT22;1861;50.240;8.596;2023-04-03T11:05:43;11.40;85.50
3690;DHT22;1861;50.240;8.596;2023-04-03T11:08:27;11.40;84.60
3690;DHT22;1861;50.240;8.596;2023-04-03T11:10:59;11.50;84.60
3690;DHT22;1861;50.240;8.596;2023-04-03T11:13:33;11.50;83.70
3690;DHT22;1861;50.240;8.596;2023-04-03T11:16:04;11.50;84.10
3690;DHT22;1861;50.240;8.596;2023-04-03T11:18:37;11.50;83.40
3690;DHT22;1861;50.240;8.596;2023-04-03T11:21:12;11.50;82.70
3690;DHT22;1861;50.240;8.596;2023-04-03T11:23:42;11.60;83.90
3690;DHT22;1861;50.240;8.596;2023-04-03T11:26:18;11.60;82.90
3690;DHT22;1861;50.240;8.596;2023-04-03T11:28:52;11.60;82.20
3690;DHT22;1861;50.240;8.596;2023-04-03T11:31:37;11.60;80.70
3690;DHT22;1861;50.240;8.596;2023-04-03T11:34:17;11.70;82.00
3690;DHT22;1861;50.240;8.596;2023-04-03T11:36:51;11.80;83.00
3690;DHT22;1861;50.240;8.596;2023-04-03T11:39:23;11.80;82.00
3690;DHT22;1861;50.240;8.596;2023-04-03T11:41:54;11.80;82.50
3690;DHT22;1861;50.240;8.596;2023-04-03T11:44:37;11.90;81.90
3690;DHT22;1861;50.240;8.596;2023-04-03T11:47:07;11.90;82.80
3690;DHT22;1861;50.240;8.596;2023-04-03T11:49:59;11.90;82.40
3690;DHT22;1861;50.240;8.596;2023-04-03T11:52:56;11.90;80.90
3690;DHT22;1861;50.240;8.596;2023-04-03T11:55:46;11.70;80.70
3690;DHT22;1861;50.240;8.596;2023-04-03T11:58:29;11.70;80.70
3690;DHT22;1861;50.240;8.596;2023-04-03T12:01:03;11.80;79.30
3690;DHT22;1861;50.240;8.596;2023-04-03T12:06:50;11.90;79.50
3690;DHT22;1861;50.240;8.596;2023-04-03T12:09:28;11.80;80.00
3690;DHT22;1861;50.240;8.596;2023-04-03T12:11:59;11.90;80.30
3690;DHT22;1861;50.240;8.596;2023-04-03T12:14:29;11.80;79.90
3690;DHT22;1861;50.240;8.596;2023-04-03T12:16:58;11.70;79.40
3690;DHT22;1861;50.240;8.596;2023-04-03T12:19:35;11.80;80.90
3690;DHT22;1861;50.240;8.596;2023-04-03T12:22:15;11.90;80.70
3690;DHT22;1861;50.240;8.596;2023-04-03T12:24:44;12.00;80.40
3690;DHT22;1861;50.240;8.596;2023-04-03T12:27:29;12.10;80.60
3690;DHT22;1861;50.240;8.596;2023-04-03T12:30:16;12.20;79.70
3690;DHT22;1861;50.240;8.596;2023-04-03T12:33:13;12.10;78.70
3690;DHT22;1861;50.240;8.596;2023-04-03T12:35:57;12.10;78.50
3690;DHT22;1861;50.240;8.596;2023-04-03T12:38:54;12.20;79.20
3690;DHT22;1861;50.240;8.596;2023-04-03T12:41:30;12.30;77.80
3690;DHT22;1861;50.240;8.596;2023-04-03T12:44:20;12.10;73.90
3690;DHT22;1861;50.240;8.596;2023-04-03T12:46:53;12.10;77.10
3690;DHT22;1861;50.240;8.596;2023-04-03T12:49:31;12.20;78.10
3690;DHT22;1861;50.240;8.596;2023-04-03T12:52:03;12.40;78.40
3690;DHT22;1861;50.240;8.596;2023-04-03T12:54:35;12.40;77.50
3690;DHT22;1861;50.240;8.596;2023-04-03T12:57:11;12.40;77.60
3690;DHT22;1861;50.240;8.596;2023-04-03T12:59:39;12.40;76.80
3690;DHT22;1861;50.240;8.596;2023-04-03T13:02:20;12.40;78.40
3690;DHT22;1861;50.240;8.596;2023-04-03T13:04:50;12.40;77.70
3690;DHT22;1861;50.240;8.596;2023-04-03T13:07:24;12.30;77.80
3690;DHT22;1861;50.240;8.596;2023-04-03T13:09:57;12.30;75.70
3690;DHT22;1861;50.240;8.596;2023-04-03T13:12:25;12.20;76.10
3690;DHT22;1861;50.240;8.596;2023-04-03T13:14:58;12.10;74.90
3690;DHT22;1861;50.240;8.596;2023-04-03T13:17:28;12.00;74.90
3690;DHT22;1861;50.240;8.596;2023-04-03T13:20:09;12.00;75.30
3690;DHT22;1861;50.240;8.596;2023-04-03T13:22:42;12.10;75.50
3690;DHT22;1861;50.240;8.596;2023-04-03T13:25:15;12.10;75.00
3690;DHT22;1861;50.240;8.596;2023-04-03T13:27:43;12.00;74.30
3690;DHT22;1861;50.240;8.596;2023-04-03T13:30:24;12.00;75.50
3690;DHT22;1861;50.240;8.596;2023-04-03T13:32:56;12.10;74.20
3690;DHT22;1861;50.240;8.596;2023-04-03T13:35:27;12.10;73.90
3690;DHT22;1861;50.240;8.596;2023-04-03T13:37:57;12.00;73.40
3690;DHT22;1861;50.240;8.596;2023-04-03T13:40:26;12.10;74.30
3690;DHT22;1861;50.240;8.596;2023-04-03T13:43:14;12.10;74.00
3690;DHT22;1861;50.240;8.596;2023-04-03T13:45:58;12.10;73.80
3690;DHT22;1861;50.240;8.596;2023-04-03T13:48:35;12.20;73.30
3690;DHT22;1861;50.240;8.596;2023-04-03T13:51:05;12.10;72.10
3690;DHT22;1861;50.240;8.596;2023-04-03T13:53:42;12.10;72.40
3690;DHT22;1861;50.240;8.596;2023-04-03T13:56:18;12.10;72.90
3690;DHT22;1861;50.240;8.596;2023-04-03T13:59:04;12.10;72.60
3690;DHT22;1861;50.240;8.596;2023-04-03T14:01:38;12.10;73.10
3690;DHT22;1861;50.240;8.596;2023-04-03T14:04:16;12.10;72.50
3690;DHT22;1861;50.240;8.596;2023-04-03T14:06:46;12.10;72.60
3690;DHT22;1861;50.240;8.596;2023-04-03T14:09:15;12.10;72.80
3690;DHT22;1861;50.240;8.596;2023-04-03T14:11:44;12.20;73.60
3690;DHT22;1861;50.240;8.596;2023-04-03T14:14:15;12.20;72.10
3690;DHT22;1861;50.240;8.596;2023-04-03T14:16:46;12.20;72.50
3690;DHT22;1861;50.240;8.596;2023-04-03T14:19:21;12.20;73.00
3690;DHT22;1861;50.240;8.596;2023-04-03T14:21:50;12.30;72.70
3690;DHT22;1861;50.240;8.596;2023-04-03T14:24:19;12.30;70.40
3690;DHT22;1861;50.240;8.596;2023-04-03T14:26:49;12.20;70.10
3690;DHT22;1861;50.240;8.596;2023-04-03T14:29:18;12.20;71.10
3690;DHT22;1861;50.240;8.596;2023-04-03T14:31:48;12.20;70.30
3690;DHT22;1861;50.240;8.596;2023-04-03T14:34:27;12.10;70.40
3690;DHT22;1861;50.240;8.596;2023-04-03T14:36:55;12.10;70.40
3690;DHT22;1861;50.240;8.596;2023-04-03T14:39:23;12.20;69.70
3690;DHT22;1861;50.240;8.596;2023-04-03T14:41:52;12.20;70.30
3690;DHT22;1861;50.240;8.596;2023-04-03T14:44:20;12.20;70.30
3690;DHT22;1861;50.240;8.596;2023-04-03T14:46:49;12.20;70.70
3690;DHT22;1861;50.240;8.596;2023-04-03T14:49:27;12.20;70.00
3690;DHT22;1861;50.240;8.596;2023-04-03T14:51:56;12.20;69.40
3690;DHT22;1861;50.240;8.596;2023-04-03T14:54:25;12.20;70.60
3690;DHT22;1861;50.240;8.596;2023-04-03T14:56:55;12.30;70.40
3690;DHT22;1861;50.240;8.596;2023-04-03T14:59:25;12.30;70.50
3690;DHT22;1861;50.240;8.596;2023-04-03T15:01:53;12.30;71.30
3690;DHT22;1861;50.240;8.596;2023-04-03T15:04:21;12.40;71.30
3690;DHT22;1861;50.240;8.596;2023-04-03T15:06:51;12.30;70.50
3690;DHT22;1861;50.240;8.596;2023-04-03T15:09:21;12.40;71.40
3690;DHT22;1861;50.240;8.596;2023-04-03T15:11:50;12.40;71.50
3690;DHT22;1861;50.240;8.596;2023-04-03T15:14:19;12.30;71.40
3690;DHT22;1861;50.240;8.596;2023-04-03T15:17:04;12.30;71.20
3690;DHT22;1861;50.240;8.596;2023-04-03T15:19:36;12.30;70.20
3690;DHT22;1861;50.240;8.596;2023-04-03T15:22:06;12.30;69.40
3690;DHT22;1861;50.240;8.596;2023-04-03T15:24:34;12.30;69.10
3690;DHT22;1861;50.240;8.596;2023-04-03T15:27:02;12.30;69.40
3690;DHT22;1861;50.240;8.596;2023-04-03T15:29:30;12.30;68.70
3690;DHT22;1861;50.240;8.596;2023-04-03T15:31:58;12.30;69.20
3690;DHT22;1861;50.240;8.596;2023-04-03T15:34:28;12.30;68.60
3690;DHT22;1861;50.240;8.596;2023-04-03T15:36:56;12.30;68.40
3690;DHT22;1861;50.240;8.596;2023-04-03T15:39:26;12.40;68.60
3690;DHT22;1861;50.240;8.596;2023-04-03T15:41:54;12.30;67.10
3690;DHT22;1861;50.240;8.596;2023-04-03T15:44:26;12.30;68.20
3690;DHT22;1861;50.240;8.596;2023-04-03T15:46:54;12.30;68.60
3690;DHT22;1861;50.240;8.596;2023-04-03T15:49:22;12.30;67.50
3690;DHT22;1861;50.240;8.596;2023-04-03T15:51:50;12.30;68.60
3690;DHT22;1861;50.240;8.596;2023-04-03T15:54:19;12.40;69.30
3690;DHT22;1861;50.240;8.596;2023-04-03T15:56:48;12.40;69.00
3690;DHT22;1861;50.240;8.596;2023-04-03T15:59:17;12.40;68.20
3690;DHT22;1861;50.240;8.596;2023-04-03T16:01:45;12.20;68.00
3690;DHT22;1861;50.240;8.596;2023-04-03T16:04:14;12.20;67.00
3690;DHT22;1861;50.240;8.596;2023-04-03T16:06:44;12.20;66.80
3690;DHT22;1861;50.240;8.596;2023-04-03T16:09:12;12.20;66.80
3690;DHT22;1861;50.240;8.596;2023-04-03T16:11:40;12.10;66.20
3690;DHT22;1861;50.240;8.596;2023-04-03T16:14:11;12.20;66.00
3690;DHT22;1861;50.240;8.596;2023-04-03T16:16:39;12.10;65.90
3690;DHT22;1861;50.240;8.596;2023-04-03T16:19:08;12.00;66.60
3690;DHT22;1861;50.240;8.596;2023-04-03T16:21:37;11.90;66.30
3690;DHT22;1861;50.240;8.596;2023-04-03T16:24:05;11.90;65.70
3690;DHT22;1861;50.240;8.596;2023-04-03T16:26:33;11.80;64.70
3690;DHT22;1861;50.240;8.596;2023-04-03T16:29:01;11.70;64.50
3690;DHT22;1861;50.240;8.596;2023-04-03T16:31:31;11.60;64.70
3690;DHT22;1861;50.240;8.596;2023-04-03T16:34:00;11.50;65.10
3690;DHT22;1861;50.240;8.596;2023-04-03T16:36:29;11.40;65.30
3690;DHT22;1861;50.240;8.596;2023-04-03T16:38:57;11.40;64.80
3690;DHT22;1861;50.240;8.596;2023-04-03T16:41:25;11.30;64.90